createdAt,value
2023-01-28T00:03:52.119Z,101221.94
2023-01-28T00:08:55.936Z,101226.53
2023-01-28T00:14:00.406Z,101226.88
2023-01-28T00:19:01.897Z,101226.59
2023-01-28T00:24:03.613Z,101228.16
2023-01-28T00:29:05.373Z,101221.13
2023-01-28T00:34:07.052Z,101216.84
2023-01-28T00:39:13.739Z,101221.06
2023-01-28T00:44:15.204Z,101223.44
2023-01-28T00:49:16.806Z,101229.09
2023-01-28T00:54:20.807Z,101225.22
2023-01-28T00:59:22.257Z,101214.88
2023-01-28T01:04:30.203Z,101222.03
2023-01-28T01:09:31.761Z,101236.16
2023-01-28T01:14:34.296Z,101231.81
2023-01-28T01:19:37.264Z,101229.06
2023-01-28T01:24:38.746Z,101237.88
2023-01-28T01:29:40.444Z,101244.56
2023-01-28T01:34:42.069Z,101262.56
2023-01-28T01:39:43.584Z,101269.19
2023-01-28T01:45:01.741Z,101264.88
2023-01-28T01:50:12.937Z,101259.72
2023-01-28T01:55:21.139Z,101266.78
2023-01-28T02:00:22.651Z,101275.78
2023-01-28T02:05:24.663Z,101277.13
2023-01-28T02:10:26.340Z,101279.69
2023-01-28T02:15:29.758Z,101269.41
2023-01-28T02:20:59.222Z,101269.19
2023-01-28T02:26:23.083Z,101273.44
2023-01-28T02:31:33.790Z,101276.47
2023-01-28T02:36:48.817Z,101273.91
2023-01-28T02:41:56.603Z,101268.22
2023-01-28T02:47:16.691Z,101271.63
2023-01-28T02:52:49.144Z,101277.75
2023-01-28T02:58:18.180Z,101278.38
2023-01-28T03:03:31.630Z,101276.00
2023-01-28T03:09:14.186Z,101271.63
2023-01-28T03:14:42.624Z,101283.13
2023-01-28T03:20:08.800Z,101294.38
2023-01-28T03:25:30.878Z,101302.63
2023-01-28T03:31:22.981Z,101296.44
2023-01-28T03:36:49.153Z,101306.34
2023-01-28T03:42:11.057Z,101307.31
2023-01-28T03:47:16.264Z,101307.44
2023-01-28T03:52:21.595Z,101313.75
2023-01-28T03:57:25.641Z,101307.94
2023-01-28T04:02:27.270Z,101306.66
2023-01-28T04:07:28.839Z,101308.53
2023-01-28T04:12:30.347Z,101315.59
2023-01-28T04:17:31.806Z,101311.00
2023-01-28T04:22:33.279Z,101318.78
2023-01-28T04:27:34.866Z,101323.00
2023-01-28T04:32:36.313Z,101317.69
2023-01-28T04:37:37.963Z,101324.31
2023-01-28T04:42:39.434Z,101330.16
2023-01-28T04:47:42.362Z,101336.34
2023-01-28T04:52:44.157Z,101330.28
2023-01-28T04:57:47.798Z,101340.09
2023-01-28T05:02:49.369Z,101338.16
2023-01-28T05:07:55.226Z,101333.56
2023-01-28T05:12:56.697Z,101339.00
2023-01-28T05:18:07.160Z,101337.28
2023-01-28T05:23:08.835Z,101343.34
2023-01-28T05:28:10.259Z,101337.59
2023-01-28T05:33:11.781Z,101347.81
2023-01-28T05:38:15.294Z,101352.66
2023-01-28T05:43:17.049Z,101360.66
2023-01-28T05:48:18.605Z,101364.47
2023-01-28T05:53:20.511Z,101368.84
2023-01-28T05:58:22.212Z,101376.63
2023-01-28T06:03:23.741Z,101374.28
2023-01-28T06:08:25.213Z,101382.28
2023-01-28T06:13:26.684Z,101385.38
2023-01-28T06:18:28.116Z,101393.22
2023-01-28T06:23:29.791Z,101404.59
2023-01-28T06:28:32.000Z,101405.94
2023-01-28T06:33:33.575Z,101401.03
2023-01-28T06:38:35.321Z,101408.41
2023-01-28T06:43:36.747Z,101406.34
2023-01-28T06:48:38.314Z,101412.41
2023-01-28T06:53:39.870Z,101414.13
2023-01-28T06:58:41.523Z,101413.59
2023-01-28T07:03:43.219Z,101415.53
2023-01-28T07:08:46.990Z,101422.13
2023-01-28T07:13:51.023Z,101422.69
2023-01-28T07:18:52.508Z,101430.66
2023-01-28T07:23:54.054Z,101437.56
2023-01-28T07:28:55.585Z,101436.72
2023-01-28T07:33:57.649Z,101439.38
2023-01-28T07:38:59.092Z,101448.75
2023-01-28T07:44:00.677Z,101459.75
2023-01-28T07:49:02.321Z,101446.63
2023-01-28T07:54:03.965Z,101457.81
2023-01-28T07:59:05.419Z,101455.81
2023-01-28T08:04:07.328Z,101464.84
2023-01-28T08:09:10.150Z,101470.28
2023-01-28T08:14:11.728Z,101468.25
2023-01-28T08:19:13.055Z,101482.19
2023-01-28T08:24:14.392Z,101478.13
2023-01-28T08:29:15.897Z,101479.63
2023-01-28T08:34:17.214Z,101487.91
2023-01-28T08:39:18.677Z,101487.06
2023-01-28T08:44:19.999Z,101486.97
2023-01-28T08:49:22.207Z,101495.72
2023-01-28T08:54:23.556Z,101499.13
2023-01-28T08:59:24.944Z,101496.63
2023-01-28T09:04:26.294Z,101499.94
2023-01-28T09:09:27.626Z,101501.41
2023-01-28T09:14:28.939Z,101503.84
2023-01-28T09:19:30.355Z,101506.50
2023-01-28T09:24:31.800Z,101511.97
2023-01-28T09:29:37.261Z,101518.44
2023-01-28T09:34:39.080Z,101526.75
2023-01-28T09:39:40.486Z,101528.25
2023-01-28T09:45:20.448Z,101528.78
2023-01-28T09:50:38.453Z,101535.81
2023-01-28T09:55:45.947Z,101535.41
2023-01-28T10:00:55.403Z,101545.06
2023-01-28T10:06:20.341Z,101548.28
2023-01-28T10:11:37.637Z,101544.69
2023-01-28T10:16:46.481Z,101560.47
2023-01-28T10:22:00.184Z,101547.44
2023-01-28T10:27:03.915Z,101557.38
2023-01-28T10:32:22.469Z,101548.47
2023-01-28T10:37:23.801Z,101556.28
2023-01-28T10:42:35.894Z,101548.78
2023-01-28T10:48:07.307Z,101556.22
2023-01-28T10:53:08.629Z,101554.19
2023-01-28T10:58:20.345Z,101552.78
2023-01-28T11:03:27.163Z,101550.59
2023-01-28T11:08:30.145Z,101554.66
2023-01-28T11:13:31.457Z,101558.19
2023-01-28T11:18:39.560Z,101566.94
2023-01-28T11:23:59.686Z,101557.94
2023-01-28T11:29:01.441Z,101555.47
2023-01-28T11:34:05.560Z,101550.88
2023-01-28T11:39:21.635Z,101545.72
2023-01-28T11:44:25.394Z,101539.72
2023-01-28T11:49:45.471Z,101540.94
2023-01-28T11:55:11.259Z,101533.28
2023-01-28T12:00:37.894Z,101533.47
2023-01-28T12:05:46.521Z,101527.78
2023-01-28T12:11:00.102Z,101529.25
2023-01-28T12:16:30.890Z,101522.25
2023-01-28T12:22:13.508Z,101525.66
2023-01-28T12:27:33.023Z,101535.25
2023-01-28T12:33:01.884Z,101522.91
2023-01-28T12:38:15.575Z,101516.13
2023-01-28T12:43:54.581Z,101517.16
2023-01-28T12:49:05.226Z,101506.13
2023-01-28T12:54:18.026Z,101506.13
2023-01-28T12:59:33.957Z,101514.47
2023-01-28T13:05:00.360Z,101500.63
2023-01-28T13:10:20.692Z,101513.34
2023-01-28T13:15:22.725Z,101519.44
2023-01-28T13:20:35.233Z,101529.19
2023-01-28T13:25:48.919Z,101529.63
2023-01-28T13:30:50.402Z,101539.94
2023-01-28T13:35:55.327Z,101536.88
2023-01-28T13:41:06.287Z,101533.97
2023-01-28T13:46:28.093Z,101545.09
2023-01-28T13:51:33.485Z,101545.00
2023-01-28T13:56:49.571Z,101540.38
2023-01-28T14:02:28.229Z,101554.28
2023-01-28T14:08:07.102Z,101548.91
2023-01-28T14:13:36.357Z,101553.31
2023-01-28T14:18:42.894Z,101551.34
2023-01-28T14:23:50.272Z,101555.41
2023-01-28T14:29:05.444Z,101546.25
2023-01-28T14:34:30.913Z,101553.66
2023-01-28T14:39:41.599Z,101553.06
2023-01-28T14:44:44.845Z,101556.38
2023-01-28T14:50:07.757Z,101546.00
2023-01-28T14:55:22.536Z,101531.72
2023-01-28T15:00:30.135Z,101546.97
2023-01-28T15:05:31.920Z,101547.25
2023-01-28T15:10:38.023Z,101546.88
2023-01-28T15:15:40.864Z,101547.19
2023-01-28T15:20:47.147Z,101526.03
2023-01-28T15:25:48.587Z,101533.75
2023-01-28T15:30:49.929Z,101521.25
2023-01-28T15:35:56.417Z,101506.34
2023-01-28T15:41:00.119Z,101528.53
2023-01-28T15:46:01.654Z,101530.97
2023-01-28T15:51:06.439Z,101526.50
2023-01-28T15:56:25.749Z,101517.47
2023-01-28T16:01:27.061Z,101535.06
2023-01-28T16:06:33.286Z,101545.66
2023-01-28T16:11:44.579Z,101551.63
2023-01-28T16:16:47.835Z,101548.31
2023-01-28T16:21:49.262Z,101564.75
2023-01-28T16:27:05.576Z,101572.47
2023-01-28T16:32:27.395Z,101572.50
2023-01-28T16:37:29.188Z,101564.09
2023-01-28T16:42:32.119Z,101584.03
2023-01-28T16:47:33.483Z,101582.25
2023-01-28T16:52:34.868Z,101575.53
2023-01-28T16:57:37.006Z,101579.47
2023-01-28T17:02:38.316Z,101580.13
2023-01-28T17:07:39.700Z,101584.25
2023-01-28T17:12:41.067Z,101601.38
2023-01-28T17:17:42.629Z,101597.97
2023-01-28T17:22:44.340Z,101602.97
2023-01-28T17:27:48.891Z,101608.84
2023-01-28T17:32:50.264Z,101599.97
2023-01-28T17:37:55.178Z,101601.97
2023-01-28T17:42:56.534Z,101601.22
2023-01-28T17:47:57.930Z,101617.03
2023-01-28T17:52:59.426Z,101641.19
2023-01-28T17:58:00.763Z,101644.91
2023-01-28T18:03:02.180Z,101637.31
2023-01-28T18:08:04.471Z,101642.75
2023-01-28T18:13:05.845Z,101644.28
2023-01-28T18:18:07.499Z,101654.69
2023-01-28T18:23:08.823Z,101673.19
2023-01-28T18:28:10.133Z,101688.63
2023-01-28T18:33:11.488Z,101692.81
2023-01-28T18:38:13.870Z,101703.84
2023-01-28T18:43:15.232Z,101699.19
2023-01-28T18:48:17.724Z,101692.03
2023-01-28T18:53:19.944Z,101693.19
2023-01-28T18:58:21.396Z,101685.13
2023-01-28T19:03:22.865Z,101691.78
2023-01-28T19:08:24.171Z,101688.81
2023-01-28T19:13:25.584Z,101703.44
2023-01-28T19:18:27.098Z,101721.75
2023-01-28T19:23:32.988Z,101705.50
2023-01-28T19:28:39.332Z,101701.25
2023-01-28T19:33:41.233Z,101698.19
2023-01-28T19:38:42.858Z,101700.06
2023-01-28T19:43:44.451Z,101700.75
2023-01-28T19:48:46.117Z,101696.31
2023-01-28T19:53:50.576Z,101698.16
2023-01-28T19:58:53.687Z,101712.22
2023-01-28T20:03:58.573Z,101717.44
2023-01-28T20:09:08.941Z,101712.31
2023-01-28T20:14:11.534Z,101710.31
2023-01-28T20:19:15.616Z,101730.53
2023-01-28T20:24:16.997Z,101730.34
2023-01-28T20:29:19.812Z,101710.31
2023-01-28T20:34:21.361Z,101724.38
2023-01-28T20:39:22.697Z,101718.06
2023-01-28T20:44:24.124Z,101722.19
2023-01-28T20:49:27.918Z,101722.88
2023-01-28T20:54:29.726Z,101736.91
2023-01-28T20:59:32.208Z,101737.75
2023-01-28T21:04:33.790Z,101727.69
2023-01-28T21:09:35.121Z,101737.72
2023-01-28T21:14:36.500Z,101737.22
2023-01-28T21:19:37.888Z,101724.31
2023-01-28T21:24:40.809Z,101723.56
2023-01-28T21:29:42.526Z,101731.13
2023-01-28T21:34:44.043Z,101734.63
2023-01-28T21:39:45.389Z,101730.50
2023-01-28T21:44:47.794Z,101726.13
2023-01-28T21:49:49.155Z,101720.06
2023-01-28T21:54:50.460Z,101722.75
2023-01-28T21:59:51.764Z,101725.75
2023-01-28T22:04:53.059Z,101722.53
2023-01-28T22:09:54.386Z,101724.03
2023-01-28T22:14:56.341Z,101719.47
2023-01-28T22:19:57.703Z,101718.94
2023-01-28T22:24:59.796Z,101710.75
2023-01-28T22:30:01.134Z,101714.91
2023-01-28T22:35:04.619Z,101725.22
2023-01-28T22:40:06.457Z,101718.66
2023-01-28T22:45:08.472Z,101718.28
2023-01-28T22:50:10.584Z,101707.06
2023-01-28T22:55:11.902Z,101706.19
2023-01-28T23:00:15.574Z,101705.59
2023-01-28T23:05:17.118Z,101692.34
2023-01-28T23:10:18.773Z,101700.22
2023-01-28T23:15:41.343Z,101693.94
2023-01-28T23:21:01.569Z,101700.50
2023-01-28T23:26:03.159Z,101695.28
2023-01-28T23:31:04.820Z,101688.91
2023-01-28T23:36:06.246Z,101699.16
2023-01-28T23:41:08.583Z,101699.06
2023-01-28T23:46:10.285Z,101692.44
2023-01-28T23:51:11.727Z,101700.31
2023-01-28T23:56:13.023Z,101688.66
